Time;durP1;ratioP1;P1;durP2;ratioP2;P2;SDS_P1;SDS_P2;PMS_P1;PMS_P2;Temp;Humidity;BMP_temperature;BMP_pressure;BME280_temperature;BME280_humidity;BME280_pressure;Samples;Min_cycle;Max_cycle;Signal;HPM_P1;HPM_P2
2020/12/22 00:00:08;;;;;;;33.20;18.17;;;;;;;0.70;90.56;100582.91;1831177;77;21490;-66
2020/12/22 00:02:53;;;;;;;28.62;17.90;;;;;;;0.72;90.51;100586.37;1886363;75;28122;-66
2020/12/22 00:05:28;;;;;;;29.55;18.98;;;;;;;0.68;90.55;100587.13;1861196;77;21552;-66
2020/12/22 00:08:14;;;;;;;32.15;18.95;;;;;;;0.70;90.66;100590.59;1827635;77;21415;-66
2020/12/22 00:10:50;;;;;;;35.33;18.95;;;;;;;0.71;90.64;100583.36;1860706;77;21049;-65
2020/12/22 00:13:25;;;;;;;30.65;18.67;;;;;;;0.75;90.73;100581.73;1861121;77;21577;-67
2020/12/22 00:15:58;;;;;;;31.70;17.95;;;;;;;0.75;90.49;100581.31;1861041;77;21056;-66
2020/12/22 00:18:36;;;;;;;28.83;18.70;;;;;;;0.75;90.54;100577.47;1805137;77;21049;-66
2020/12/22 00:21:16;;;;;;;32.83;19.25;;;;;;;0.79;90.56;100577.16;1830016;77;21272;-65
2020/12/22 00:23:57;;;;;;;30.48;18.80;;;;;;;0.82;90.41;100580.64;1852765;76;21179;-66
2020/12/22 00:26:29;;;;;;;28.73;17.90;;;;;;;0.81;90.20;100572.93;1827691;77;21052;-66
2020/12/22 00:29:17;;;;;;;31.50;19.00;;;;;;;0.78;90.23;100574.15;1844083;77;21076;-67
2020/12/22 00:31:51;;;;;;;35.35;20.55;;;;;;;0.79;90.19;100578.02;1860992;77;21096;-66
2020/12/22 00:34:25;;;;;;;32.73;19.30;;;;;;;0.82;90.23;100580.64;1860819;77;21588;-67
2020/12/22 00:37:12;;;;;;;29.92;18.32;;;;;;;0.84;90.14;100576.86;1860966;77;21111;-67
2020/12/22 00:39:48;;;;;;;29.77;18.50;;;;;;;0.85;89.92;100573.89;1831091;77;21065;-67
2020/12/22 00:42:31;;;;;;;33.30;19.48;;;;;;;0.81;89.83;100570.38;1860964;77;21061;-66
2020/12/22 00:45:16;;;;;;;27.85;17.75;;;;;;;0.80;89.85;100569.92;1861015;77;21521;-67
2020/12/22 00:47:47;;;;;;;30.35;18.98;;;;;;;0.80;89.87;100572.06;1829853;77;22096;-67
2020/12/22 00:50:23;;;;;;;29.27;19.37;;;;;;;0.81;89.77;100566.53;1860952;77;21147;-66
2020/12/22 00:52:56;;;;;;;;;;;;;;;0.83;89.87;100568.32;1863688;77;21577;-67
2020/12/22 00:55:32;;;;;;;34.40;18.77;;;;;;;0.81;89.70;100566.53;1829598;77;20540;-67
2020/12/22 00:58:09;;;;;;;31.17;19.12;;;;;;;0.78;89.65;100560.94;1861025;77;21060;-66
2020/12/22 01:00:46;;;;;;;31.90;18.65;;;;;;;0.76;89.64;100562.59;1860932;77;21377;-68
2020/12/22 01:03:17;;;;;;;30.00;18.15;;;;;;;0.75;89.72;100557.00;1861159;76;21068;-66
2020/12/22 01:05:55;;;;;;;31.77;18.65;;;;;;;0.78;89.69;100558.79;1860876;77;21136;-67
2020/12/22 01:08:34;;;;;;;31.60;19.00;;;;;;;0.77;89.68;100562.19;1859448;77;21139;-66
2020/12/22 01:11:06;;;;;;;30.43;17.95;;;;;;;0.77;89.67;100558.34;1861012;77;21113;-67
2020/12/22 01:13:42;;;;;;;31.93;18.92;;;;;;;0.77;89.58;100550.25;1855129;77;22086;-66
2020/12/22 01:16:37;;;;;;;34.03;19.37;;;;;;;0.78;89.43;100554.95;1860249;77;21231;-67
2020/12/22 01:19:13;;;;;;;31.37;19.37;;;;;;;0.77;89.40;100551.53;1827494;77;21481;-67
2020/12/22 01:21:49;;;;;;;32.30;19.25;;;;;;;0.75;89.47;100549.73;1860523;77;21120;-67
2020/12/22 01:24:20;;;;;;;31.90;18.90;;;;;;;0.73;89.52;100542.02;1860680;77;21076;-67
2020/12/22 01:26:59;;;;;;;30.37;18.65;;;;;;;0.73;89.55;100536.91;1859986;77;21185;-66
2020/12/22 01:29:31;;;;;;;34.98;19.95;;;;;;;0.71;89.54;100527.05;1827834;77;21497;-66
2020/12/22 01:32:16;;;;;;;36.90;20.97;;;;;;;0.69;89.65;100529.14;1828566;77;21537;-67
2020/12/22 01:34:49;;;;;;;34.03;19.42;;;;;;;0.66;89.68;100527.34;1860311;77;21061;-66
2020/12/22 01:37:21;;;;;;;37.40;21.23;;;;;;;0.66;89.65;100536.72;1827827;77;21068;-67
2020/12/22 01:40:06;;;;;;;31.17;19.25;;;;;;;0.64;89.68;100534.12;1860346;77;22432;-67
2020/12/22 01:42:44;;;;;;;33.42;20.20;;;;;;;0.64;89.75;100529.42;1859932;77;21053;-66
2020/12/22 01:45:22;;;;;;;34.63;19.32;;;;;;;0.64;89.80;100523.03;1829148;77;21961;-67
2020/12/22 01:48:01;;;;;;;36.60;21.17;;;;;;;0.62;89.86;100521.72;1860372;77;21052;-66
2020/12/22 01:50:33;;;;;;;36.85;20.08;;;;;;;0.60;89.92;100506.72;1860376;77;21061;-66
2020/12/22 01:53:07;;;;;;;39.55;22.32;;;;;;;0.61;89.98;100505.92;1857164;77;21232;-66
2020/12/22 01:55:45;;;;;;;44.58;22.52;;;;;;;0.59;89.86;100502.43;1860258;77;21076;-67
2020/12/22 01:58:18;;;;;;;35.85;22.27;;;;;;;0.59;89.98;100512.67;1827586;77;21048;-66
2020/12/22 02:00:54;;;;;;;38.78;22.17;;;;;;;0.60;90.07;100510.97;1860123;77;21493;-66
2020/12/22 02:03:24;;;;;;;41.15;22.98;;;;;;;0.63;90.06;100505.53;1849281;76;21148;-66
2020/12/22 02:06:01;;;;;;;39.58;21.50;;;;;;;0.68;90.18;100500.12;1848584;77;21338;-67
2020/12/22 02:08:34;;;;;;;41.25;21.55;;;;;;;0.71;89.92;100491.23;1848692;77;21139;-68
2020/12/22 02:11:07;;;;;;;37.67;20.17;;;;;;;0.73;89.85;100493.40;1848805;77;21148;-67
2020/12/22 02:13:35;;;;;;;36.05;20.52;;;;;;;0.73;89.77;100487.00;1848593;77;21494;-67
2020/12/22 02:16:03;;;;;;;31.12;20.10;;;;;;;0.70;89.51;100489.50;1848590;77;21199;-66
2020/12/22 02:18:31;;;;;;;36.83;20.12;;;;;;;0.68;89.59;100493.73;1848511;77;21346;-66
2020/12/22 02:21:02;;;;;;;34.25;20.05;;;;;;;0.71;89.73;100487.39;1848544;77;21144;-66
2020/12/22 02:23:30;;;;;;;36.48;19.77;;;;;;;0.71;89.60;100487.39;1848726;77;21120;-64
2020/12/22 02:25:58;;;;;;;31.27;19.65;;;;;;;0.70;89.59;100476.70;1848455;77;21495;-65
2020/12/22 02:28:26;;;;;;;33.02;19.67;;;;;;;0.68;89.46;100469.80;1848686;76;21045;-65
2020/12/22 02:30:54;;;;;;;30.97;19.17;;;;;;;0.66;89.47;100472.74;1848622;77;21358;-66
2020/12/22 02:33:22;;;;;;;29.87;18.12;;;;;;;0.62;89.56;100462.86;1848618;77;21987;-67
2020/12/22 02:35:50;;;;;;;30.02;19.37;;;;;;;0.60;89.66;100458.10;1848589;77;21144;-66
2020/12/22 02:38:18;;;;;;;29.65;19.05;;;;;;;0.61;89.75;100466.67;1848807;77;21656;-65
2020/12/22 02:40:46;;;;;;;33.98;18.40;;;;;;;0.63;89.91;100463.31;1848437;77;21045;-66
2020/12/22 02:43:15;;;;;;;31.40;19.37;;;;;;;0.63;89.85;100462.03;1848708;77;21340;-65
2020/12/22 02:45:43;;;;;;;31.35;18.75;;;;;;;0.62;89.75;100451.35;1848598;77;21129;-65
2020/12/22 02:48:12;;;;;;;27.40;17.45;;;;;;;0.63;89.74;100450.52;1848664;77;21121;-65
2020/12/22 02:50:41;;;;;;;30.95;19.02;;;;;;;0.62;89.76;100450.07;1848711;77;21100;-67
2020/12/22 02:53:09;;;;;;;31.70;20.27;;;;;;;0.61;89.73;100443.64;1845875;77;21109;-65
2020/12/22 02:55:36;;;;;;;31.90;20.05;;;;;;;0.60;89.83;100452.12;1857947;77;21255;-65
2020/12/22 02:58:04;;;;;;;36.03;20.37;;;;;;;0.58;89.87;100441.86;1812135;79;21549;-66
2020/12/22 03:00:32;;;;;;;29.82;18.05;;;;;;;0.58;89.92;100435.45;1783687;80;21566;-66
2020/12/22 03:03:00;;;;;;;31.55;19.70;;;;;;;0.60;89.92;100432.93;1783628;80;21157;-65
2020/12/22 03:05:28;;;;;;;35.05;20.55;;;;;;;0.59;89.80;100424.39;1783782;80;21055;-66
2020/12/22 03:07:56;;;;;;;33.70;19.65;;;;;;;0.58;89.78;100428.20;1783840;80;22055;-65
2020/12/22 03:10:24;;;;;;;31.93;19.17;;;;;;;0.56;89.87;100429.45;1783845;80;21507;-67
2020/12/22 03:12:52;;;;;;;32.50;19.48;;;;;;;0.54;89.90;100424.30;1783586;80;21115;-66
2020/12/22 03:15:20;;;;;;;32.33;19.12;;;;;;;0.53;90.05;100415.32;1783747;80;21114;-66
2020/12/22 03:17:48;;;;;;;34.27;20.30;;;;;;;0.54;90.02;100414.07;1783549;80;21169;-67
2020/12/22 03:20:16;;;;;;;33.65;19.25;;;;;;;0.51;90.00;100416.95;1783617;80;21369;-66
2020/12/22 03:22:45;;;;;;;34.10;19.48;;;;;;;0.49;90.21;100413.09;1783582;80;21074;-66
2020/12/22 03:25:13;;;;;;;36.85;21.15;;;;;;;0.50;90.29;100405.00;1783722;80;21126;-66
2020/12/22 03:27:41;;;;;;;37.15;21.62;;;;;;;0.48;90.41;100401.55;1783804;80;21166;-66
2020/12/22 03:30:11;;;;;;;34.00;21.05;;;;;;;0.47;90.54;100396.84;1783675;79;21162;-66
2020/12/22 03:32:39;;;;;;;31.73;18.37;;;;;;;0.49;90.67;100396.87;1783794;80;21412;-66
2020/12/22 03:35:08;;;;;;;32.48;19.57;;;;;;;0.52;90.78;100393.09;1783511;80;21082;-67
2020/12/22 03:37:37;;;;;;;35.52;20.97;;;;;;;0.52;90.70;100385.42;1783569;80;21095;-66
2020/12/22 03:40:06;;;;;;;33.95;21.33;;;;;;;0.55;90.71;100384.23;1783715;80;21074;-65
2020/12/22 03:42:34;;;;;;;34.13;20.90;;;;;;;0.56;90.67;100375.72;1783736;80;21143;-65
2020/12/22 03:45:04;;;;;;;31.40;18.95;;;;;;;0.54;90.54;100373.55;1783598;80;21219;-65
2020/12/22 03:47:34;;;;;;;32.38;19.70;;;;;;;0.51;90.63;100367.92;1783777;80;21145;-65
2020/12/22 03:50:10;;;;;;;35.38;20.48;;;;;;;0.51;90.69;100375.60;1781099;80;21059;-65
2020/12/22 03:52:51;;;;;;;38.67;21.77;;;;;;;0.50;90.84;100366.63;1782755;79;21607;-66
2020/12/22 03:55:25;;;;;;;37.33;20.95;;;;;;;0.49;90.81;100358.50;1783779;80;21063;-65
2020/12/22 03:58:04;;;;;;;35.35;21.05;;;;;;;0.49;90.79;100357.22;1783586;80;21376;-65
2020/12/22 04:00:38;;;;;;;38.60;21.48;;;;;;;0.50;90.91;100361.50;1783633;80;21143;-65
2020/12/22 04:03:11;;;;;;;38.17;21.20;;;;;;;0.53;91.08;100362.87;1786538;80;21051;-66
2020/12/22 04:05:45;;;;;;;37.30;21.40;;;;;;;0.57;90.91;100365.93;1849281;77;21041;-65
2020/12/22 04:08:15;;;;;;;36.23;20.75;;;;;;;0.59;90.92;100360.42;1848963;77;21137;-67
2020/12/22 04:10:46;;;;;;;37.88;21.23;;;;;;;0.61;90.85;100354.95;1849255;77;21180;-67
2020/12/22 04:13:20;;;;;;;39.83;21.75;;;;;;;0.61;90.67;100351.11;1848633;77;21057;-66
2020/12/22 04:15:49;;;;;;;35.73;20.82;;;;;;;0.61;90.57;100347.27;1848958;77;21148;-66
2020/12/22 04:18:18;;;;;;;37.88;20.88;;;;;;;0.59;90.62;100334.84;1849208;77;21470;-66
2020/12/22 04:20:48;;;;;;;37.67;21.70;;;;;;;0.58;90.66;100334.39;1849067;77;21125;-66
2020/12/22 04:23:26;;;;;;;33.60;19.87;;;;;;;0.57;90.72;100339.48;1849187;77;21201;-66
2020/12/22 04:25:59;;;;;;;40.98;21.82;;;;;;;0.57;90.84;100336.92;1848811;77;21036;-66
2020/12/22 04:28:29;;;;;;;39.40;21.35;;;;;;;0.57;90.79;100333.95;1849140;77;21050;-66
2020/12/22 04:31:04;;;;;;;33.28;21.02;;;;;;;0.60;90.82;100331.45;1849205;77;21124;-66
2020/12/22 04:33:37;;;;;;;35.63;20.85;;;;;;;0.62;90.85;100332.36;1848807;77;21116;-66
2020/12/22 04:36:08;;;;;;;38.33;20.80;;;;;;;0.63;90.67;100327.69;1849136;77;22208;-66
2020/12/22 04:38:52;;;;;;;31.82;19.67;;;;;;;0.61;90.71;100329.36;1848968;77;21140;-67
2020/12/22 04:41:25;;;;;;;38.65;20.37;;;;;;;0.60;90.71;100330.58;1849175;77;21565;-65
2020/12/22 04:43:55;;;;;;;37.23;20.82;;;;;;;0.59;90.75;100325.02;1849167;77;21093;-65
2020/12/22 04:46:24;;;;;;;36.33;21.20;;;;;;;0.58;90.77;100321.60;1848931;77;21112;-65
2020/12/22 04:48:56;;;;;;;35.83;21.05;;;;;;;0.58;90.87;100319.05;1849298;77;22086;-66
2020/12/22 04:51:30;;;;;;;36.58;20.88;;;;;;;0.58;90.91;100319.46;1841709;77;21514;-66
2020/12/22 04:54:07;;;;;;;35.52;20.52;;;;;;;0.59;90.95;100323.74;1849084;77;21482;-65
2020/12/22 04:56:38;;;;;;;37.88;21.62;;;;;;;0.58;90.96;100319.05;1848962;77;21053;-66
2020/12/22 04:59:10;;;;;;;40.45;22.62;;;;;;;0.60;91.07;100309.70;1849379;77;21164;-66
2020/12/22 05:01:42;;;;;;;36.53;22.02;;;;;;;0.62;90.96;100300.38;1849225;77;22249;-66
2020/12/22 05:04:14;;;;;;;36.85;23.05;;;;;;;0.63;90.99;100302.10;1846622;77;21524;-66
2020/12/22 05:06:47;;;;;;;38.05;22.40;;;;;;;0.64;90.96;100296.16;1858021;77;21025;-66
2020/12/22 05:09:20;;;;;;;36.93;21.57;;;;;;;0.63;90.83;100294.42;1858073;77;21537;-66
2020/12/22 05:11:51;;;;;;;37.83;21.80;;;;;;;0.63;90.85;100292.28;1857986;77;21074;-65
2020/12/22 05:14:28;;;;;;;37.88;22.95;;;;;;;0.62;91.00;100285.03;1857977;77;21188;-66
2020/12/22 05:16:58;;;;;;;36.65;21.55;;;;;;;0.63;90.91;100287.17;1773881;80;21073;-66
2020/12/22 05:19:34;;;;;;;34.30;20.60;;;;;;;0.63;91.03;100298.69;1786394;80;21075;-66
2020/12/22 05:21:56;;;;;;;34.65;20.77;;;;;;;0.61;90.94;100299.94;1805361;79;21476;-68
2020/12/22 05:24:24;;;;;;;33.48;20.15;;;;;;;0.61;91.04;100288.42;1806198;79;21189;-65
2020/12/22 05:26:51;;;;;;;38.90;21.60;;;;;;;0.61;91.12;100279.47;1806198;79;21261;-66
2020/12/22 05:29:19;;;;;;;36.13;20.43;;;;;;;0.63;91.09;100275.23;1805961;79;21103;-66
2020/12/22 05:31:51;;;;;;;33.05;20.17;;;;;;;0.63;91.06;100273.95;1806223;79;21059;-65
2020/12/22 05:34:19;;;;;;;38.38;20.20;;;;;;;0.63;90.95;100277.80;1805963;79;21146;-65
2020/12/22 05:36:51;;;;;;;40.98;21.82;;;;;;;0.62;90.98;100274.80;1806216;79;21062;-65
2020/12/22 05:39:19;;;;;;;39.03;21.97;;;;;;;0.63;90.98;100271.40;1806170;79;21356;-66
2020/12/22 05:41:47;;;;;;;36.68;20.37;;;;;;;0.65;90.98;100281.66;1784039;79;21579;-66
2020/12/22 05:44:15;;;;;;;34.18;21.33;;;;;;;0.67;90.97;100282.13;1806096;79;21134;-66
2020/12/22 05:46:44;;;;;;;36.77;20.35;;;;;;;0.67;90.79;100271.03;1806314;79;21122;-66
2020/12/22 05:49:14;;;;;;;40.20;21.65;;;;;;;0.67;90.84;100275.73;1735279;79;21123;-65
2020/12/22 05:51:45;;;;;;;33.58;19.67;;;;;;;0.68;90.88;100277.87;1806280;79;22820;-65
2020/12/22 05:54:15;;;;;;;31.68;18.90;;;;;;;0.68;90.81;100282.60;1784168;79;21759;-66
2020/12/22 05:56:44;;;;;;;33.45;20.37;;;;;;;0.67;90.77;100283.41;1805065;79;21575;-67
2020/12/22 05:59:22;;;;;;;36.08;20.80;;;;;;;0.68;90.87;100271.09;1799426;79;21562;-66
2020/12/22 06:01:51;;;;;;;43.28;23.18;;;;;;;0.68;90.94;100272.37;1772523;80;21157;-67
2020/12/22 06:04:24;;;;;;;38.95;22.30;;;;;;;0.74;90.87;100276.72;1750152;80;21764;-67
2020/12/22 06:06:53;;;;;;;40.12;23.18;;;;;;;0.75;90.72;100271.63;1698434;81;21192;-68
2020/12/22 06:09:23;;;;;;;36.05;20.35;;;;;;;0.75;90.65;100274.19;1710429;81;21183;-67
2020/12/22 06:11:56;;;;;;;36.38;20.88;;;;;;;0.73;90.54;100270.75;1742367;80;21186;-67
2020/12/22 06:14:26;;;;;;;31.57;19.42;;;;;;;0.72;90.60;100270.30;1701269;81;21184;-67
2020/12/22 06:17:05;;;;;;;33.65;20.70;;;;;;;0.76;90.59;100277.64;1752150;81;21394;-66
2020/12/22 06:19:36;;;;;;;31.75;19.30;;;;;;;0.77;90.54;100282.78;1777593;79;21164;-68
2020/12/22 06:22:09;;;;;;;32.15;18.82;;;;;;;0.79;90.38;100282.39;1744320;79;21213;-67
2020/12/22 06:24:38;;;;;;;29.98;18.67;;;;;;;0.77;90.34;100280.23;1711536;81;21628;-67
2020/12/22 06:27:11;;;;;;;32.45;18.60;;;;;;;0.78;90.33;100269.57;1737847;81;21167;-67
2020/12/22 06:29:43;;;;;;;33.58;18.82;;;;;;;0.77;90.26;100271.27;1753609;79;23610;-67
2020/12/22 06:32:29;;;;;;;32.38;18.85;;;;;;;0.76;90.30;100263.15;1770203;80;21239;-67
2020/12/22 06:35:28;;;;;;;32.60;18.67;;;;;;;0.75;90.23;100257.55;1797675;78;21673;-67
2020/12/22 06:37:57;;;;;;;34.27;19.77;;;;;;;0.74;90.20;100255.83;1820248;78;21149;-67
2020/12/22 06:40:55;;;;;;;35.08;18.10;;;;;;;0.74;90.25;100258.39;1813730;78;21248;-67
2020/12/22 06:43:44;;;;;;;28.70;17.02;;;;;;;0.77;90.24;100256.33;1798559;77;21182;-68
2020/12/22 06:46:37;;;;;;;29.95;18.25;;;;;;;0.77;90.19;100255.91;1809884;78;21196;-66
2020/12/22 06:49:10;;;;;;;27.07;17.55;;;;;;;0.76;90.09;100259.31;1811329;78;21171;-66
2020/12/22 06:51:48;;;;;;;30.85;17.80;;;;;;;0.78;90.15;100257.64;1803512;78;21129;-66
2020/12/22 06:54:25;;;;;;;29.75;17.92;;;;;;;0.80;90.00;100259.80;1804273;78;21154;-64
2020/12/22 06:56:57;;;;;;;31.68;19.00;;;;;;;0.79;89.99;100255.94;1798155;78;21469;-65
2020/12/22 06:59:48;;;;;;;30.68;19.00;;;;;;;0.80;90.02;100255.09;1810769;78;21070;-64
2020/12/22 07:02:38;;;;;;;28.17;18.10;;;;;;;0.82;89.91;100264.52;1795805;78;21161;-64
2020/12/22 07:05:09;;;;;;;31.95;17.85;;;;;;;0.86;89.85;100260.77;1816314;77;21175;-66
2020/12/22 07:07:57;;;;;;;36.50;18.50;;;;;;;0.89;89.79;100263.38;1826163;77;21135;-63
2020/12/22 07:10:28;;;;;;;27.93;17.32;;;;;;;0.91;89.64;100261.31;1836128;77;21254;-64
2020/12/22 07:12:58;;;;;;;29.77;17.50;;;;;;;0.94;89.54;100260.49;1831276;76;21065;-67
2020/12/22 07:15:44;;;;;;;28.23;17.65;;;;;;;0.95;89.42;100254.53;1825911;77;21187;-66
2020/12/22 07:18:32;;;;;;;29.98;17.67;;;;;;;0.95;89.38;100257.09;1818618;77;21176;-66
2020/12/22 07:21:06;;;;;;;34.48;18.42;;;;;;;0.94;89.37;100260.08;1814271;79;21144;-66
2020/12/22 07:23:35;;;;;;;32.45;18.55;;;;;;;0.94;89.31;100253.67;1814488;77;22204;-64
2020/12/22 07:26:08;;;;;;;33.18;19.65;;;;;;;0.97;89.29;100256.28;1840451;77;21597;-64
2020/12/22 07:28:46;;;;;;;32.25;18.70;;;;;;;0.97;89.26;100240.06;1845417;77;21501;-66
2020/12/22 07:31:22;;;;;;;32.38;18.15;;;;;;;0.98;89.07;100239.22;1857848;77;21132;-64
2020/12/22 07:34:09;;;;;;;27.42;16.30;;;;;;;0.98;89.01;100225.14;1828455;77;21127;-66
2020/12/22 07:36:42;;;;;;;27.87;16.85;;;;;;;0.98;88.92;100214.90;1826567;78;22498;-64
2020/12/22 07:39:22;;;;;;;29.85;17.85;;;;;;;0.99;88.91;100208.97;1826463;78;21052;-64
2020/12/22 07:41:56;;;;;;;29.80;16.50;;;;;;;1.01;88.99;100204.73;1826382;78;21053;-65
2020/12/22 07:44:29;;;;;;;28.12;17.10;;;;;;;0.99;88.81;100205.99;1825976;78;21163;-65
2020/12/22 07:47:03;;;;;;;27.95;16.48;;;;;;;1.02;88.86;100206.03;1825502;78;21127;-66
2020/12/22 07:49:49;;;;;;;24.12;15.10;;;;;;;1.07;88.75;100204.85;1821431;78;21755;-65
2020/12/22 07:52:32;;;;;;;24.87;15.85;;;;;;;1.09;88.62;100198.91;1826181;78;21163;-64
2020/12/22 07:55:08;;;;;;;28.50;17.67;;;;;;;1.11;88.60;100189.55;1826510;78;21057;-65
2020/12/22 07:57:42;;;;;;;27.10;17.55;;;;;;;1.14;88.43;100196.86;1825388;78;21188;-67
2020/12/22 08:00:13;;;;;;;25.30;16.25;;;;;;;1.15;88.39;100208.41;1824837;78;21184;-64
2020/12/22 08:02:48;;;;;;;29.87;18.23;;;;;;;1.18;88.29;100205.03;1825348;78;21380;-65
2020/12/22 08:05:25;;;;;;;28.25;18.07;;;;;;;1.18;88.13;100195.64;1827431;77;21548;-64
2020/12/22 08:07:53;;;;;;;28.50;17.65;;;;;;;1.18;88.14;100183.26;1771673;80;21614;-65
2020/12/22 08:10:24;;;;;;;27.82;16.60;;;;;;;1.20;88.02;100186.70;1801520;79;21171;-66
2020/12/22 08:12:53;;;;;;;28.05;17.75;;;;;;;1.20;87.95;100187.98;1779856;80;21171;-66
2020/12/22 08:15:30;;;;;;;28.32;16.87;;;;;;;1.20;87.99;100181.58;1773345;79;21616;-66
2020/12/22 08:18:03;;;;;;;26.57;16.82;;;;;;;1.22;87.94;100178.23;1810953;79;21165;-70
2020/12/22 08:20:36;;;;;;;26.45;15.68;;;;;;;1.24;87.87;100173.98;1753909;79;21262;-65
2020/12/22 08:23:11;;;;;;;32.65;17.57;;;;;;;1.27;87.82;100162.50;1801460;78;21201;-65
2020/12/22 08:25:47;;;;;;;31.97;18.45;;;;;;;1.31;87.79;100168.12;1777850;80;21479;-65
2020/12/22 08:28:26;;;;;;;29.18;18.25;;;;;;;1.37;87.80;100171.22;1714856;80;21413;-65
2020/12/22 08:30:55;;;;;;;29.20;17.50;;;;;;;1.43;87.81;100167.87;1844020;76;21050;-65
2020/12/22 08:33:32;;;;;;;26.42;16.70;;;;;;;1.48;87.66;100171.38;1806075;76;21166;-65
2020/12/22 08:36:02;;;;;;;31.27;18.07;;;;;;;1.52;87.35;100182.13;1753379;79;21617;-65
2020/12/22 08:38:32;;;;;;;28.92;17.73;;;;;;;1.55;87.09;100166.37;1807866;79;21606;-64
2020/12/22 08:41:16;;;;;;;27.60;17.17;;;;;;;1.58;86.77;100160.42;1809943;79;21409;-64
2020/12/22 08:43:54;;;;;;;31.60;17.80;;;;;;;1.58;86.50;100162.98;1823208;77;21699;-66
2020/12/22 08:46:24;;;;;;;26.70;16.70;;;;;;;1.59;86.79;100165.59;1811977;79;21645;-66
2020/12/22 08:49:14;;;;;;;26.20;16.35;;;;;;;1.65;86.95;100160.95;1800096;79;21128;-65
2020/12/22 08:51:50;;;;;;;;;;;;;;;1.80;86.40;100153.91;1843665;76;22456;-65
2020/12/22 08:54:29;;;;;;;24.55;15.68;;;;;;;1.79;86.13;100145.36;1788984;79;20228;-64
2020/12/22 08:57:23;;;;;;;28.85;17.67;;;;;;;1.82;86.20;100139.02;1789868;77;21770;-65
2020/12/22 08:59:58;;;;;;;28.80;18.07;;;;;;;1.87;85.85;100124.95;1810841;77;21097;-65
2020/12/22 09:02:31;;;;;;;27.10;17.35;;;;;;;1.86;85.54;100120.25;1807867;79;21148;-64
2020/12/22 09:05:14;;;;;;;29.23;17.82;;;;;;;1.83;85.41;100118.08;1816566;79;21160;-65
2020/12/22 09:07:43;;;;;;;27.75;16.17;;;;;;;1.84;85.53;100116.81;1810216;77;21152;-65
2020/12/22 09:10:12;;;;;;;31.30;16.70;;;;;;;1.87;85.37;100115.56;1808132;77;21279;-66
2020/12/22 09:12:42;;;;;;;28.50;16.77;;;;;;;1.90;85.31;100114.34;1814295;79;21183;-66
2020/12/22 09:15:10;;;;;;;27.40;16.62;;;;;;;1.92;85.25;100102.81;1804017;77;21644;-65
2020/12/22 09:17:40;;;;;;;27.90;17.27;;;;;;;1.93;84.97;100108.37;1797395;77;21144;-66
2020/12/22 09:20:08;;;;;;;27.45;16.82;;;;;;;1.93;84.63;100106.67;1797542;77;21751;-66
2020/12/22 09:22:36;;;;;;;25.52;16.50;;;;;;;1.91;84.82;100103.23;1729574;81;21372;-65
2020/12/22 09:25:27;;;;;;;27.37;16.85;;;;;;;1.94;84.82;100099.84;1742095;81;21339;-65
2020/12/22 09:28:24;;;;;;;25.75;16.95;;;;;;;1.97;84.78;100100.33;1745054;80;21194;-65
2020/12/22 09:30:52;;;;;;;25.97;15.70;;;;;;;1.99;84.40;100099.48;1798395;77;21592;-66
2020/12/22 09:33:20;;;;;;;27.27;17.07;;;;;;;2.00;84.23;100090.95;1802626;77;21149;-64
2020/12/22 09:35:48;;;;;;;31.33;17.60;;;;;;;2.04;84.42;100085.03;1738854;82;21377;-65
2020/12/22 09:38:16;;;;;;;28.65;16.48;;;;;;;2.10;84.55;100076.53;1752673;81;21538;-66
2020/12/22 09:40:44;;;;;;;24.90;15.10;;;;;;;2.17;84.59;100076.61;1728234;81;21163;-65
2020/12/22 09:43:13;;;;;;;29.42;15.83;;;;;;;2.19;83.89;100072.39;1752001;80;21373;-64
2020/12/22 09:45:41;;;;;;;28.42;15.85;;;;;;;2.17;83.95;100071.91;1735406;81;21192;-65
2020/12/22 09:48:10;;;;;;;26.12;16.07;;;;;;;2.14;83.57;100065.05;1781614;80;21538;-64
2020/12/22 09:50:38;;;;;;;27.52;16.75;;;;;;;2.04;83.45;100056.83;1780134;79;21121;-65
2020/12/22 09:53:06;;;;;;;29.77;17.85;;;;;;;1.96;83.82;100049.43;1775586;79;21585;-66
2020/12/22 09:55:38;;;;;;;28.50;16.67;;;;;;;1.89;84.49;100052.38;1820203;77;21217;-65
2020/12/22 09:58:07;;;;;;;24.05;15.60;;;;;;;1.88;84.69;100044.63;1792181;79;21126;-65
2020/12/22 10:00:35;;;;;;;25.75;15.80;;;;;;;1.89;84.72;100044.68;1798765;79;21212;-65
2020/12/22 10:03:03;;;;;;;26.90;16.37;;;;;;;1.91;84.87;100034.02;1718747;81;21216;-66
2020/12/22 10:05:31;;;;;;;28.27;18.17;;;;;;;1.93;84.49;100024.63;1739683;80;21223;-64
2020/12/22 10:08:02;;;;;;;27.67;16.75;;;;;;;1.95;84.61;100016.95;1746701;80;21077;-65
2020/12/22 10:10:36;;;;;;;28.27;17.45;;;;;;;1.94;84.78;100014.80;1781908;79;21113;-65
2020/12/22 10:13:10;;;;;;;25.02;16.97;;;;;;;1.93;84.57;100009.24;1774591;80;22038;-65
2020/12/22 10:15:40;;;;;;;25.75;16.30;;;;;;;1.93;84.47;99996.42;1791001;78;21208;-64
2020/12/22 10:18:10;;;;;;;26.60;15.93;;;;;;;1.92;84.81;99984.88;1785095;79;21920;-64
2020/12/22 10:20:39;;;;;;;28.67;16.37;;;;;;;1.92;84.45;99985.73;1791908;78;21137;-66
2020/12/22 10:23:07;;;;;;;28.83;16.55;;;;;;;1.90;84.37;99979.73;1803702;79;21089;-67
2020/12/22 10:25:35;;;;;;;28.57;17.05;;;;;;;1.89;84.24;99971.61;1774251;79;21430;-66
2020/12/22 10:28:02;;;;;;;27.67;16.70;;;;;;;1.88;84.76;99967.30;1788444;78;21101;-66
2020/12/22 10:30:35;;;;;;;26.85;16.77;;;;;;;1.93;84.74;99958.39;1786364;78;21183;-67
2020/12/22 10:33:04;;;;;;;31.20;17.92;;;;;;;1.99;84.85;99944.78;1791462;78;21168;-64
2020/12/22 10:35:33;;;;;;;28.47;17.57;;;;;;;2.01;84.32;99925.13;1791927;78;21223;-66
2020/12/22 10:38:01;;;;;;;28.90;17.90;;;;;;;2.01;84.07;99922.57;1786828;78;21371;-65
2020/12/22 10:40:31;;;;;;;27.62;16.77;;;;;;;2.01;84.40;99931.13;1735240;80;21343;-64
2020/12/22 10:43:05;;;;;;;30.12;17.55;;;;;;;2.04;84.67;99922.59;1792878;79;21613;-65
2020/12/22 10:45:38;;;;;;;29.37;17.45;;;;;;;2.10;84.50;99916.23;1791416;79;21168;-65
2020/12/22 10:48:11;;;;;;;29.23;17.55;;;;;;;2.14;84.56;99902.19;1797225;79;21164;-68
2020/12/22 10:50:39;;;;;;;32.88;18.55;;;;;;;2.21;84.66;99897.55;1793888;78;21195;-66
2020/12/22 10:53:07;;;;;;;29.15;17.42;;;;;;;2.27;84.31;99900.98;1779520;78;21066;-67
2020/12/22 10:55:36;;;;;;;28.73;17.48;;;;;;;2.32;83.88;99902.75;1805262;77;21636;-67
2020/12/22 10:58:04;;;;;;;25.30;15.72;;;;;;;2.36;83.54;99892.97;1806794;77;21129;-67
2020/12/22 11:00:32;;;;;;;29.75;17.17;;;;;;;2.39;83.17;99891.70;1797553;78;21180;-68
2020/12/22 11:03:06;;;;;;;29.60;17.35;;;;;;;2.46;83.62;99893.89;1801915;78;21365;-65
2020/12/22 11:08:20;;;;;;;;;;;;;;;2.61;83.61;99885.44;1791191;77;21498;-68
2020/12/22 11:10:49;;;;;;;27.45;16.27;;;;;;;2.69;82.68;99879.92;1795467;79;20247;-65
2020/12/22 11:13:18;;;;;;;23.70;15.60;;;;;;;2.72;81.99;99871.84;1809053;77;21154;-67
2020/12/22 11:15:45;;;;;;;24.35;15.98;;;;;;;2.77;82.06;99879.55;1822092;78;22356;-67
2020/12/22 11:18:16;;;;;;;26.50;14.65;;;;;;;2.80;81.74;99878.30;1741324;81;21104;-65
2020/12/22 11:20:44;;;;;;;27.62;15.65;;;;;;;2.80;81.63;99892.42;1738269;81;21097;-67
2020/12/22 11:23:13;;;;;;;24.35;15.00;;;;;;;2.85;82.00;99892.43;1751259;81;21608;-66
2020/12/22 11:25:41;;;;;;;25.72;15.85;;;;;;;2.94;82.05;99885.63;1709561;82;21147;-66
2020/12/22 11:28:10;;;;;;;25.65;16.93;;;;;;;3.01;81.87;99875.83;1698323;83;22045;-67
2020/12/22 11:30:37;;;;;;;25.25;15.93;;;;;;;3.07;81.07;99880.14;1730424;80;21650;-67
2020/12/22 11:33:05;;;;;;;27.17;15.93;;;;;;;3.10;81.21;99874.14;1727238;82;21514;-64
2020/12/22 11:35:33;;;;;;;25.43;16.05;;;;;;;3.13;80.93;99878.03;1784268;79;21152;-66
2020/12/22 11:38:04;;;;;;;25.43;16.52;;;;;;;3.17;80.38;99878.46;1795264;79;21180;-65
2020/12/22 11:40:31;;;;;;;29.30;17.00;;;;;;;3.14;79.88;99869.47;1776391;79;22286;-65
2020/12/22 11:42:59;;;;;;;29.10;17.20;;;;;;;3.08;80.01;99878.00;1822061;78;21649;-65
2020/12/22 11:45:29;;;;;;;26.55;16.52;;;;;;;3.03;80.19;99863.02;1819495;78;21049;-65
2020/12/22 11:48:02;;;;;;;29.57;16.67;;;;;;;2.99;79.95;99856.98;1780760;79;21035;-66